This is the latest recevied weather packets stored in our database for station/object K5RWS. If no packets are shown the sender has not sent any weather packets the latest 1 day(s).
| Time | Temp. | Humidity | Pressure | Rain* | Wind** | Luminosity | Snow |
|---|---|---|---|---|---|---|---|
| 1778004124 | 15° C | 43% | 1014.1 hPa | 0 mm | 3.58 m/s, 259° | 613 W/m² | - |
| 1778003820 | 15° C | 43% | 1014.2 hPa | 0 mm | 2.24 m/s, 250° | 887 W/m² | - |
| 1778003517 | 15° C | 44% | 1014.2 hPa | 0 mm | 1.79 m/s, 289° | 758 W/m² | - |
| 1778003213 | 14.44° C | 42% | 1014.5 hPa | 0 mm | 2.68 m/s, 255° | 369 W/m² | - |
| 1778002909 | 14.44° C | 44% | 1014.3 hPa | 0 mm | 3.58 m/s, 265° | 279 W/m² | - |
| 1778002606 | 15.56° C | 41% | 1014.3 hPa | 0 mm | 4.92 m/s, 262° | 314 W/m² | - |
| 1778002304 | 15° C | 40% | 1014 hPa | 0 mm | 1.79 m/s, 247° | 349 W/m² | - |
| 1778002001 | 15° C | 38% | 1014.1 hPa | 0 mm | 1.34 m/s, 229° | 362 W/m² | - |
| 1778001698 | 15° C | 38% | 1014.1 hPa | 0 mm | 2.24 m/s, 39° | 474 W/m² | - |
| 1778001397 | 14.44° C | 39% | 1014 hPa | 0 mm | 1.34 m/s, 59° | 294 W/m² | - |
| 1778001095 | 14.44° C | 40% | 1014.2 hPa | 0 mm | 1.34 m/s, 347° | 188 W/m² | - |
| 1778000792 | 14.44° C | 41% | 1014.3 hPa | 0 mm | 0 m/s | 170 W/m² | - |
| 1778000488 | 16.11° C | 41% | 1014.3 hPa | 0 mm | 1.34 m/s, 276° | 243 W/m² | - |
| 1778000183 | 15° C | 42% | 1014.3 hPa | 0 mm | 0 m/s | 369 W/m² | - |
| 1777999880 | 15° C | 42% | 1014.2 hPa | 0 mm | 2.24 m/s, 58° | 512 W/m² | - |
| 1777999575 | 14.44° C | 42% | 1014.5 hPa | 0 mm | 1.34 m/s, 52° | 557 W/m² | - |
| 1777999273 | 13.89° C | 42% | 1014.3 hPa | 0 mm | 2.24 m/s, 304° | 336 W/m² | - |
| 1777998971 | 13.89° C | 43% | 1014.5 hPa | 0 mm | 1.34 m/s, 272° | 307 W/m² | - |
| 1777998668 | 13.33° C | 44% | 1014.3 hPa | 0 mm | 2.68 m/s, 326° | 354 W/m² | - |
| 1777998366 | 13.33° C | 44% | 1014.5 hPa | 0 mm | 1.79 m/s, 321° | 340 W/m² | - |
| 1777998063 | 13.33° C | 45% | 1014.5 hPa | 0 mm | 2.68 m/s, 307° | 386 W/m² | - |
| 1777997760 | 12.78° C | 45% | 1014.5 hPa | 0 mm | 3.13 m/s, 304° | 282 W/m² | - |
| 1777997457 | 13.33° C | 45% | 1014.8 hPa | 0 mm | 2.24 m/s, 304° | 252 W/m² | - |
| 1777997155 | 12.78° C | 46% | 1014.8 hPa | 0 mm | 1.79 m/s, 316° | 260 W/m² | - |
| 1777996852 | 12.22° C | 49% | 1014.7 hPa | 0 mm | 2.24 m/s, 305° | 248 W/m² | - |
* Rain latest hour (hover to see other rain measurements)
** Current wind speed in m/s (hover to see current wind gust speed)